Time;durP1;ratioP1;P1;durP2;ratioP2;P2;SDS_P1;SDS_P2;PMS_P1;PMS_P2;Temp;Humidity;BMP_temperature;BMP_pressure;BME280_temperature;BME280_humidity;BME280_pressure;Samples;Min_cycle;Max_cycle;Signal;HPM_P1;HPM_P2
2023/04/07 00:01:09;;;;;;;13.50;12.77;;;8.80;99.90;;;;;;5083243;28;20522;-80
2023/04/07 00:03:39;;;;;;;14.50;13.60;;;8.80;99.90;;;;;;5085789;28;20483;-80
2023/04/07 00:06:08;;;;;;;13.90;13.10;;;8.80;99.90;;;;;;5082483;28;20465;-80
2023/04/07 00:08:37;;;;;;;13.50;12.80;;;8.80;99.90;;;;;;5083689;28;20457;-81
2023/04/07 00:11:06;;;;;;;13.90;13.20;;;8.70;99.90;;;;;;5080782;28;21050;-80
2023/04/07 00:13:34;;;;;;;13.97;13.23;;;8.80;99.90;;;;;;5082691;28;20479;-80
2023/04/07 00:16:02;;;;;;;14.27;13.50;;;8.80;99.90;;;;;;5082812;28;20495;-81
2023/04/07 00:18:30;;;;;;;15.07;14.27;;;8.80;99.90;;;;;;5080681;28;20970;-80
2023/04/07 00:20:58;;;;;;;14.10;13.40;;;8.70;99.90;;;;;;5082178;28;20525;-80
2023/04/07 00:23:26;;;;;;;13.90;13.20;;;8.80;99.90;;;;;;5077120;28;20611;-81
2023/04/07 00:25:56;;;;;;;14.40;13.50;;;8.80;99.90;;;;;;5078847;28;20483;-81
2023/04/07 00:28:24;;;;;;;15.10;14.07;;;8.70;99.90;;;;;;5083204;28;20453;-81
2023/04/07 00:30:52;;;;;;;15.37;14.50;;;8.80;99.90;;;;;;5081236;28;20457;-81
2023/04/07 00:33:20;;;;;;;15.23;14.30;;;8.80;99.90;;;;;;5081964;28;20486;-80
2023/04/07 00:35:48;;;;;;;14.30;13.33;;;8.80;99.90;;;;;;5083722;28;20492;-80
2023/04/07 00:38:17;;;;;;;14.93;13.93;;;8.80;99.90;;;;;;5084470;28;20483;-80
2023/04/07 00:40:45;;;;;;;15.00;14.10;;;8.70;99.90;;;;;;5081844;28;20566;-81
2023/04/07 00:43:14;;;;;;;15.80;14.80;;;8.80;99.90;;;;;;5077369;28;20931;-80
2023/04/07 00:45:42;;;;;;;15.00;14.00;;;8.70;99.90;;;;;;5082800;28;20542;-80
2023/04/07 00:48:11;;;;;;;13.83;13.03;;;8.70;99.90;;;;;;5080601;28;20468;-81
2023/04/07 00:50:39;;;;;;;15.83;14.70;;;8.70;99.90;;;;;;5076323;28;20968;-79
2023/04/07 00:53:07;;;;;;;15.40;14.57;;;8.70;99.90;;;;;;5082058;28;20566;-80
2023/04/07 00:55:35;;;;;;;14.57;13.70;;;8.70;99.90;;;;;;5079941;28;20976;-80
2023/04/07 00:58:04;;;;;;;14.27;13.37;;;8.70;99.90;;;;;;5081841;28;20973;-80
2023/04/07 01:00:38;;;;;;;15.27;14.03;;;8.70;99.90;;;;;;5077241;28;20452;-79
2023/04/07 01:03:10;;;;;;;14.80;13.90;;;8.70;99.90;;;;;;5082252;28;20483;-80
2023/04/07 01:05:42;;;;;;;14.33;13.50;;;8.70;99.90;;;;;;5084806;28;20494;-80
2023/04/07 01:08:15;;;;;;;14.07;13.27;;;8.70;99.90;;;;;;5080707;28;20971;-79
2023/04/07 01:10:50;;;;;;;13.83;12.90;;;8.70;99.90;;;;;;5082245;28;20916;-80
2023/04/07 01:13:25;;;;;;;14.60;13.90;;;8.70;99.90;;;;;;5081436;28;20533;-80
2023/04/07 01:15:57;;;;;;;14.90;13.90;;;8.70;99.90;;;;;;5082929;28;20478;-80
2023/04/07 01:18:31;;;;;;;15.07;14.17;;;8.70;99.90;;;;;;5080801;28;20440;-80
2023/04/07 01:21:04;;;;;;;15.30;14.37;;;8.70;99.90;;;;;;5082544;28;20517;-80
2023/04/07 01:23:49;;;;;;;14.73;13.93;;;8.60;99.90;;;;;;5077721;28;21206;-80
2023/04/07 01:26:24;;;;;;;14.47;13.77;;;8.70;99.90;;;;;;5081036;28;20471;-79
2023/04/07 01:29:33;;;;;;;13.83;13.03;;;8.70;99.90;;;;;;5077573;28;20541;-79
2023/04/07 01:32:07;;;;;;;14.50;13.70;;;8.70;99.90;;;;;;5079427;28;20559;-80
2023/04/07 01:34:36;;;;;;;15.10;14.30;;;8.60;99.90;;;;;;5080138;28;20485;-79
2023/04/07 01:37:06;;;;;;;14.43;13.60;;;8.70;99.90;;;;;;5080767;28;20453;-81
2023/04/07 01:39:35;;;;;;;15.20;14.30;;;8.70;99.90;;;;;;5077917;28;20543;-80
2023/04/07 01:42:05;;;;;;;14.57;13.73;;;8.70;99.90;;;;;;5078883;28;22417;-79
2023/04/07 01:44:36;;;;;;;14.80;13.90;;;8.80;99.90;;;;;;5080991;28;20953;-79
2023/04/07 01:47:05;;;;;;;15.40;14.30;;;8.80;99.90;;;;;;5076945;28;20448;-80
2023/04/07 01:49:36;;;;;;;15.87;14.87;;;8.80;99.90;;;;;;5080740;28;20452;-79
2023/04/07 01:52:05;;;;;;;15.37;14.27;;;8.70;99.90;;;;;;5079201;28;20469;-80
2023/04/07 01:54:34;;;;;;;15.43;14.13;;;8.70;99.90;;;;;;5080243;28;20491;-78
2023/04/07 01:57:03;;;;;;;14.80;13.80;;;8.70;99.90;;;;;;5077232;28;20451;-80
2023/04/07 01:59:31;;;;;;;14.10;13.40;;;8.70;99.90;;;;;;5081618;28;20464;-80
2023/04/07 02:02:00;;;;;;;14.70;13.90;;;8.70;99.90;;;;;;5078710;28;20533;-79
2023/04/07 02:04:36;;;;;;;15.10;14.30;;;8.60;99.90;;;;;;5080037;28;20474;-80
2023/04/07 02:07:11;;;;;;;15.20;14.20;;;8.70;99.90;;;;;;5079483;28;20452;-80
2023/04/07 02:09:42;;;;;;;14.73;13.70;;;8.70;99.90;;;;;;5079288;28;20452;-79
2023/04/07 02:12:12;;;;;;;14.50;13.60;;;8.80;87.90;;;;;;5080835;28;20487;-82
2023/04/07 02:14:41;;;;;;;14.47;13.73;;;8.80;16.70;;;;;;5081705;28;20531;-81
2023/04/07 02:17:11;;;;;;;14.50;13.70;;;8.70;36.70;;;;;;5082792;28;21356;-81
2023/04/07 02:19:41;;;;;;;15.63;14.67;;;8.70;59.90;;;;;;5078533;28;20451;-80
2023/04/07 02:22:10;;;;;;;14.67;13.87;;;8.70;31.00;;;;;;5083481;28;20565;-81
2023/04/07 02:24:41;;;;;;;14.23;13.43;;;8.70;40.20;;;;;;5076892;28;20456;-79
2023/04/07 02:27:10;;;;;;;14.27;13.47;;;8.60;53.30;;;;;;5080551;28;21045;-81
2023/04/07 02:29:38;;;;;;;15.90;14.73;;;8.60;53.10;;;;;;5079100;28;20487;-81
2023/04/07 02:32:06;;;;;;;14.50;13.60;;;8.60;99.90;;;;;;5078810;28;20501;-81
2023/04/07 02:34:36;;;;;;;15.17;14.27;;;8.60;99.90;;;;;;5080215;28;20820;-80
2023/04/07 02:37:05;;;;;;;14.77;13.87;;;8.60;99.90;;;;;;5080312;28;20953;-77
2023/04/07 02:39:33;;;;;;;15.63;14.43;;;8.60;99.90;;;;;;5084119;28;21005;-80
2023/04/07 02:42:01;;;;;;;14.67;13.83;;;8.60;99.90;;;;;;5081752;28;20920;-79
2023/04/07 02:44:30;;;;;;;15.73;14.63;;;8.60;99.90;;;;;;5085364;28;20941;-80
2023/04/07 02:46:58;;;;;;;14.83;13.83;;;8.70;99.90;;;;;;5082502;28;20554;-79
2023/04/07 02:49:26;;;;;;;15.40;14.50;;;8.60;99.90;;;;;;5072860;28;20456;-79
2023/04/07 02:51:56;;;;;;;15.83;14.93;;;8.60;99.90;;;;;;5080675;28;20579;-80
2023/04/07 02:54:24;;;;;;;15.47;14.63;;;8.70;99.90;;;;;;5078861;28;20474;-80
2023/04/07 02:56:52;;;;;;;16.03;14.73;;;8.70;97.40;;;;;;5081381;28;20487;-79
2023/04/07 02:59:20;;;;;;;15.10;14.10;;;8.70;99.90;;;;;;5078528;28;20501;-81
2023/04/07 03:01:48;;;;;;;15.10;14.30;;;8.70;92.60;;;;;;5080179;28;20471;-80
2023/04/07 03:04:16;;;;;;;15.37;14.37;;;8.70;92.90;;;;;;5079895;28;20452;-80
2023/04/07 03:06:44;;;;;;;14.83;14.03;;;8.70;87.40;;;;;;5079299;28;20465;-80
2023/04/07 03:09:14;;;;;;;15.40;14.50;;;8.60;99.90;;;;;;5077586;28;20492;-78
2023/04/07 03:11:42;;;;;;;16.40;15.40;;;8.60;99.90;;;;;;5081664;28;20562;-80
2023/04/07 03:14:10;;;;;;;15.40;14.40;;;8.60;99.90;;;;;;5079219;28;20444;-79
2023/04/07 03:16:38;;;;;;;15.60;14.50;;;8.50;99.90;;;;;;5084698;28;20476;-80
2023/04/07 03:19:07;;;;;;;16.13;15.03;;;8.50;99.90;;;;;;5081240;28;20472;-79
2023/04/07 03:21:37;;;;;;;14.80;13.93;;;8.50;99.90;;;;;;5082526;28;20447;-80
2023/04/07 03:24:06;;;;;;;15.50;14.20;;;8.50;99.90;;;;;;5083145;28;20481;-80
2023/04/07 03:26:36;;;;;;;16.00;15.00;;;8.50;99.90;;;;;;5084666;28;20463;-80
2023/04/07 03:29:04;;;;;;;16.73;15.53;;;8.50;99.90;;;;;;5082658;28;20448;-81
2023/04/07 03:31:32;;;;;;;15.60;14.60;;;8.50;99.90;;;;;;5085367;28;20456;-81
2023/04/07 03:34:00;;;;;;;16.73;15.30;;;8.50;99.90;;;;;;5084521;28;20461;-81
2023/04/07 03:36:28;;;;;;;16.73;15.63;;;8.50;99.90;;;;;;5085618;28;20475;-80
2023/04/07 03:38:57;;;;;;;15.80;14.80;;;8.60;99.90;;;;;;5086118;28;20450;-81
2023/04/07 03:41:25;;;;;;;15.70;14.70;;;8.60;99.90;;;;;;5084316;28;20460;-81
2023/04/07 03:43:54;;;;;;;15.80;14.90;;;8.60;99.90;;;;;;5083011;28;20541;-80
2023/04/07 03:46:23;;;;;;;16.17;15.13;;;8.60;99.90;;;;;;5085381;28;20447;-81
2023/04/07 03:48:51;;;;;;;16.00;14.90;;;8.50;99.90;;;;;;5080517;28;20551;-80
2023/04/07 03:51:19;;;;;;;15.37;14.27;;;8.50;99.90;;;;;;5081560;28;20505;-80
2023/04/07 03:53:47;;;;;;;15.73;14.43;;;8.50;99.90;;;;;;5081752;28;20469;-80
2023/04/07 03:56:15;;;;;;;16.27;15.17;;;8.50;99.90;;;;;;5084964;28;20471;-80
2023/04/07 03:58:45;;;;;;;16.27;15.17;;;8.50;99.90;;;;;;5081234;28;20457;-79
2023/04/07 04:01:14;;;;;;;15.87;14.67;;;8.60;99.90;;;;;;5077341;28;20452;-79
2023/04/07 04:03:43;;;;;;;15.50;14.60;;;8.60;99.90;;;;;;5081646;28;20472;-79
2023/04/07 04:06:11;;;;;;;16.47;15.10;;;8.60;99.90;;;;;;5086747;28;20464;-80
2023/04/07 04:08:39;;;;;;;16.90;15.43;;;8.60;99.90;;;;;;5085489;28;20820;-80
2023/04/07 04:11:08;;;;;;;15.70;14.60;;;8.60;99.90;;;;;;5083827;28;20452;-80
2023/04/07 04:13:36;;;;;;;16.40;15.23;;;8.60;70.50;;;;;;5084227;28;20994;-79
2023/04/07 04:16:05;;;;;;;14.87;13.77;;;8.60;39.00;;;;;;5082177;28;20516;-79
2023/04/07 04:18:34;;;;;;;16.07;14.93;;;8.60;53.00;;;;;;5082771;28;20560;-79
2023/04/07 04:21:02;;;;;;;15.83;14.73;;;8.60;52.90;;;;;;5084662;28;20456;-79
2023/04/07 04:23:30;;;;;;;15.97;14.97;;;8.50;42.70;;;;;;5079912;28;20488;-80
2023/04/07 04:26:02;;;;;;;15.77;14.70;;;8.60;82.60;;;;;;5085538;28;21249;-79
2023/04/07 04:28:30;;;;;;;15.67;14.60;;;8.50;78.80;;;;;;5084055;28;20450;-80
2023/04/07 04:30:59;;;;;;;15.67;14.57;;;8.50;99.90;;;;;;5084288;28;20442;-79
2023/04/07 04:33:27;;;;;;;15.50;14.40;;;8.50;99.90;;;;;;5081294;28;21062;-80
2023/04/07 04:35:56;;;;;;;17.40;16.20;;;8.50;99.90;;;;;;5082964;28;21051;-80
2023/04/07 04:38:24;;;;;;;16.23;15.00;;;8.50;99.90;;;;;;5081619;28;20571;-79
2023/04/07 04:40:53;;;;;;;16.47;15.30;;;8.50;99.90;;;;;;5081839;28;20513;-79
2023/04/07 04:43:21;;;;;;;15.83;14.93;;;8.50;99.30;;;;;;5082906;28;20469;-79
2023/04/07 04:45:49;;;;;;;15.80;14.83;;;8.50;99.90;;;;;;5083531;28;20449;-80
2023/04/07 04:48:17;;;;;;;16.70;15.53;;;8.50;99.90;;;;;;5082815;28;20536;-79
2023/04/07 04:50:45;;;;;;;17.00;15.47;;;8.50;99.90;;;;;;5082522;28;20456;-79
2023/04/07 04:53:16;;;;;;;15.47;14.50;;;8.60;99.90;;;;;;5079976;28;20474;-78
2023/04/07 04:55:46;;;;;;;15.60;14.63;;;8.50;99.90;;;;;;5081221;28;20477;-80
2023/04/07 04:58:15;;;;;;;15.83;14.90;;;8.50;99.90;;;;;;5082079;28;20804;-80
2023/04/07 05:00:43;;;;;;;15.80;14.80;;;8.50;99.90;;;;;;5083550;28;20492;-80
2023/04/07 05:03:12;;;;;;;17.10;16.00;;;8.50;99.90;;;;;;5081402;28;20480;-80
2023/04/07 05:05:41;;;;;;;16.77;15.63;;;8.50;99.90;;;;;;5082523;28;20452;-81
2023/04/07 05:08:11;;;;;;;16.57;15.40;;;8.50;99.90;;;;;;5080824;28;20452;-80
2023/04/07 05:10:41;;;;;;;16.20;15.13;;;8.50;99.90;;;;;;5081919;28;20548;-80
2023/04/07 05:13:09;;;;;;;15.77;14.87;;;8.50;99.90;;;;;;5082705;28;20562;-80
2023/04/07 05:15:38;;;;;;;15.87;14.87;;;8.50;99.90;;;;;;5083069;28;20509;-79
2023/04/07 05:18:07;;;;;;;17.40;16.10;;;8.60;99.90;;;;;;5079361;28;20482;-79
2023/04/07 05:20:36;;;;;;;16.90;15.80;;;8.60;99.90;;;;;;5075385;28;21179;-80
2023/04/07 05:23:04;;;;;;;16.63;15.60;;;8.50;99.90;;;;;;5073500;28;20503;-80
2023/04/07 05:25:32;;;;;;;17.00;15.90;;;8.50;99.90;;;;;;5078933;28;20499;-79
2023/04/07 05:28:02;;;;;;;17.17;15.87;;;8.50;70.70;;;;;;5083335;28;20545;-79
2023/04/07 05:30:30;;;;;;;17.70;16.50;;;8.60;54.60;;;;;;5082383;28;20464;-79
2023/04/07 05:32:58;;;;;;;16.37;15.37;;;8.60;53.20;;;;;;5080169;28;20548;-80
2023/04/07 05:35:27;;;;;;;17.03;15.97;;;8.50;99.90;;;;;;5081107;28;20463;-80
2023/04/07 05:37:55;;;;;;;16.60;15.60;;;8.50;99.90;;;;;;5081167;28;20488;-81
2023/04/07 05:40:23;;;;;;;17.07;15.97;;;8.50;99.90;;;;;;5083001;28;20455;-79
2023/04/07 05:42:51;;;;;;;17.10;16.10;;;8.50;99.90;;;;;;5082249;28;20558;-80
2023/04/07 05:45:20;;;;;;;15.50;14.60;;;8.60;99.90;;;;;;5083008;28;21375;-80
2023/04/07 05:47:49;;;;;;;15.80;14.80;;;8.60;52.90;;;;;;5081587;28;20578;-79
2023/04/07 05:50:18;;;;;;;16.80;15.70;;;8.70;53.20;;;;;;5080179;28;20451;-80
2023/04/07 05:52:46;;;;;;;17.70;16.30;;;8.70;21.30;;;;;;5082068;28;20474;-80
2023/04/07 05:55:14;;;;;;;15.70;14.87;;;8.60;16.00;;;;;;5081430;28;20494;-79
2023/04/07 05:57:42;;;;;;;18.10;16.90;;;8.60;16.10;;;;;;5081884;28;20489;-80
2023/04/07 06:00:11;;;;;;;17.87;16.53;;;8.60;99.90;;;;;;5075820;28;20444;-80
2023/04/07 06:02:41;;;;;;;18.30;17.00;;;8.60;99.90;;;;;;5085375;28;20515;-80
2023/04/07 06:05:10;;;;;;;18.23;17.07;;;8.60;99.90;;;;;;5084030;28;20476;-79
2023/04/07 06:07:38;;;;;;;16.50;15.60;;;8.70;99.90;;;;;;5079487;28;20457;-80
2023/04/07 06:10:08;;;;;;;18.03;16.73;;;8.70;85.40;;;;;;5081104;28;20486;-79
2023/04/07 06:12:36;;;;;;;17.57;16.30;;;8.70;53.50;;;;;;5084098;28;20505;-81
2023/04/07 06:15:05;;;;;;;17.50;16.40;;;8.80;38.40;;;;;;5081274;28;20467;-80
2023/04/07 06:17:33;;;;;;;17.13;16.00;;;8.80;92.00;;;;;;5083921;28;20484;-80
2023/04/07 06:20:03;;;;;;;16.43;15.50;;;8.80;86.30;;;;;;5082554;28;20452;-79
2023/04/07 06:22:31;;;;;;;16.27;15.27;;;8.80;7.40;;;;;;5081826;28;20991;-78
2023/04/07 06:25:00;;;;;;;17.10;15.93;;;8.80;30.50;;;;;;5085373;28;21057;-79
2023/04/07 06:27:28;;;;;;;16.50;15.30;;;8.80;53.00;;;;;;5085111;28;20454;-80
2023/04/07 06:29:56;;;;;;;16.20;15.30;;;8.80;48.70;;;;;;5082854;28;20712;-80
2023/04/07 06:32:25;;;;;;;17.55;16.35;;;8.90;18.80;;;;;;5082942;28;20444;-80
2023/04/07 06:34:53;;;;;;;26.27;23.50;;;8.90;1.00;;;;;;5083922;28;20192;-79
2023/04/07 06:37:23;;;;;;;46.90;34.53;;;8.90;1.00;;;;;;5086313;28;20471;-78
2023/04/07 06:39:52;;;;;;;44.53;32.63;;;9.00;1.00;;;;;;5083479;28;20454;-80
2023/04/07 06:42:20;;;;;;;34.23;28.10;;;9.00;1.00;;;;;;5085291;28;20514;-81
2023/04/07 06:44:48;;;;;;;18.30;16.90;;;9.10;1.00;;;;;;5086917;28;20442;-81
2023/04/07 06:47:16;;;;;;;16.67;15.23;;;9.10;1.00;;;;;;5085333;28;20834;-79
2023/04/07 06:49:44;;;;;;;18.13;16.77;;;9.10;1.00;;;;;;5079325;28;20456;-79
2023/04/07 06:52:12;;;;;;;22.47;20.57;;;9.10;1.00;;;;;;5073708;28;20492;-81
2023/04/07 06:54:42;;;;;;;16.00;15.00;;;9.10;1.00;;;;;;5082243;28;20437;-80
2023/04/07 06:57:11;;;;;;;17.63;16.43;;;9.10;1.00;;;;;;5085126;28;20462;-80
2023/04/07 06:59:39;;;;;;;17.70;16.50;;;9.10;1.00;;;;;;5085090;28;20573;-81
2023/04/07 07:02:07;;;;;;;17.10;15.97;;;9.20;1.00;;;;;;5084800;28;20487;-80
2023/04/07 07:04:36;;;;;;;53.17;40.53;;;9.20;1.00;;;;;;5084233;28;20448;-81
2023/04/07 07:07:04;;;;;;;28.77;25.90;;;9.20;1.00;;;;;;5086578;28;21022;-78
2023/04/07 07:09:32;;;;;;;24.23;22.30;;;9.30;1.00;;;;;;5084069;28;20521;-81
2023/04/07 07:12:02;;;;;;;22.30;20.43;;;9.40;1.00;;;;;;5088148;28;20468;-80
2023/04/07 07:14:31;;;;;;;17.40;16.30;;;9.40;1.00;;;;;;5088056;28;20457;-80
2023/04/07 07:16:59;;;;;;;17.13;16.23;;;9.50;1.00;;;;;;5083519;28;20512;-82
2023/04/07 07:19:27;;;;;;;17.40;16.20;;;9.60;1.00;;;;;;5086411;28;20502;-80
2023/04/07 07:21:55;;;;;;;16.73;15.60;;;9.60;1.00;;;;;;5084323;28;20535;-79
2023/04/07 07:24:24;;;;;;;18.70;17.60;;;9.70;1.00;;;;;;5081933;28;20456;-77
2023/04/07 07:26:52;;;;;;;20.03;18.53;;;9.70;1.00;;;;;;5083303;28;20515;-78
2023/04/07 07:29:21;;;;;;;17.80;16.60;;;9.60;1.00;;;;;;5085594;28;21006;-81
2023/04/07 07:31:49;;;;;;;16.57;15.50;;;9.60;1.00;;;;;;5088749;28;20211;-81
2023/04/07 07:34:18;;;;;;;16.60;15.60;;;9.70;1.00;;;;;;5088985;28;20867;-80
2023/04/07 07:36:46;;;;;;;17.13;16.13;;;9.60;1.00;;;;;;5085534;28;20441;-82
2023/04/07 07:39:14;;;;;;;15.90;15.00;;;9.70;1.00;;;;;;5089139;28;20469;-81
2023/04/07 07:41:42;;;;;;;16.03;15.13;;;9.90;1.00;;;;;;5087876;28;20452;-80
2023/04/07 07:44:10;;;;;;;17.23;16.23;;;10.10;1.00;;;;;;5091503;28;20439;-81
2023/04/07 07:46:40;;;;;;;16.30;15.50;;;10.30;1.00;;;;;;5090589;28;20461;-81
2023/04/07 07:49:08;;;;;;;16.80;15.87;;;10.50;1.00;;;;;;5087615;28;20449;-82
2023/04/07 07:51:36;;;;;;;16.50;15.70;;;10.80;1.00;;;;;;5087468;28;20444;-81
2023/04/07 07:54:04;;;;;;;16.83;15.73;;;10.90;1.00;;;;;;5087213;28;20535;-81
2023/04/07 07:56:32;;;;;;;16.27;15.37;;;11.00;1.00;;;;;;5089752;28;20544;-80
2023/04/07 07:59:00;;;;;;;16.20;15.40;;;11.10;99.90;;;;;;5086219;28;21041;-81
2023/04/07 08:01:29;;;;;;;15.63;14.90;;;11.20;99.90;;;;;;5087553;28;20446;-81
2023/04/07 08:03:58;;;;;;;16.10;15.20;;;11.30;99.90;;;;;;5086248;28;20474;-80
2023/04/07 08:06:30;;;;;;;16.17;15.47;;;11.30;99.90;;;;;;5086502;28;20460;-82
2023/04/07 08:08:58;;;;;;;16.53;15.73;;;11.40;99.90;;;;;;5087985;28;20446;-82
2023/04/07 08:11:26;;;;;;;16.00;15.10;;;11.40;99.90;;;;;;5088759;28;20463;-81
2023/04/07 08:13:54;;;;;;;16.67;15.87;;;11.50;99.90;;;;;;5088665;28;20948;-81
2023/04/07 08:16:23;;;;;;;16.70;15.70;;;11.60;99.90;;;;;;5091433;28;20815;-81
2023/04/07 08:18:51;;;;;;;16.30;15.50;;;11.60;99.90;;;;;;5091462;28;20466;-81
2023/04/07 08:21:21;;;;;;;15.90;15.07;;;11.70;99.90;;;;;;5088893;28;20488;-81
2023/04/07 08:23:49;;;;;;;16.57;15.50;;;11.80;99.90;;;;;;5078412;28;20477;-82
2023/04/07 08:26:18;;;;;;;15.93;15.20;;;11.90;99.90;;;;;;5088951;28;20955;-81
2023/04/07 08:28:46;;;;;;;15.47;14.80;;;12.10;99.90;;;;;;5090257;28;20453;-81
2023/04/07 08:31:14;;;;;;;16.40;15.70;;;12.20;99.90;;;;;;5089663;28;20577;-78
2023/04/07 08:33:42;;;;;;;15.10;14.40;;;12.30;99.90;;;;;;5085646;28;20486;-79
2023/04/07 08:36:10;;;;;;;16.33;15.20;;;12.30;99.90;;;;;;5085686;28;20952;-81
2023/04/07 08:38:40;;;;;;;15.00;14.23;;;12.40;99.90;;;;;;5086604;28;20465;-80
2023/04/07 08:41:12;;;;;;;14.73;14.23;;;12.50;99.90;;;;;;5085242;28;20453;-80
2023/04/07 08:43:42;;;;;;;14.73;14.07;;;12.50;99.90;;;;;;5081198;28;20524;-80
2023/04/07 08:46:11;;;;;;;13.70;13.20;;;12.60;99.90;;;;;;5080518;28;20485;-80
2023/04/07 08:48:42;;;;;;;14.10;13.40;;;12.60;99.90;;;;;;5083717;28;20462;-81
2023/04/07 08:51:13;;;;;;;14.27;13.63;;;12.60;99.90;;;;;;5082830;28;20457;-80
2023/04/07 08:53:49;;;;;;;14.47;13.87;;;12.70;99.90;;;;;;5084757;28;20478;-81
2023/04/07 08:56:18;;;;;;;14.03;13.40;;;12.80;99.90;;;;;;5085566;28;20503;-82
2023/04/07 08:58:47;;;;;;;14.30;13.70;;;12.80;99.90;;;;;;5087838;28;21349;-82
2023/04/07 09:01:16;;;;;;;14.57;13.97;;;12.90;99.90;;;;;;5085852;28;20503;-81
2023/04/07 09:03:45;;;;;;;13.93;13.43;;;13.00;99.90;;;;;;5088314;28;20505;-83
2023/04/07 09:06:14;;;;;;;14.77;13.97;;;13.00;99.90;;;;;;5088232;28;20458;-82
2023/04/07 09:08:44;;;;;;;15.00;14.40;;;13.00;99.90;;;;;;5081064;28;20447;-81
2023/04/07 09:11:12;;;;;;;15.00;14.10;;;13.00;99.90;;;;;;5088053;28;20456;-82
2023/04/07 09:13:43;;;;;;;13.97;13.47;;;13.10;99.90;;;;;;5086869;28;20473;-83
2023/04/07 09:16:12;;;;;;;14.27;13.60;;;13.20;99.90;;;;;;5086276;28;20459;-81
2023/04/07 09:18:43;;;;;;;14.87;14.00;;;13.30;99.90;;;;;;5086544;28;20496;-83
2023/04/07 09:21:11;;;;;;;14.50;13.90;;;13.30;99.90;;;;;;5085604;28;20502;-81
2023/04/07 09:23:44;;;;;;;14.03;13.33;;;13.40;99.90;;;;;;5078066;28;20470;-83
2023/04/07 09:26:23;;;;;;;14.60;13.80;;;13.50;99.90;;;;;;5088473;28;20512;-80
2023/04/07 09:28:54;;;;;;;14.83;14.10;;;13.60;99.90;;;;;;5087667;28;20447;-82
2023/04/07 09:31:25;;;;;;;14.00;13.50;;;13.60;99.90;;;;;;5086073;28;20445;-82
2023/04/07 09:33:54;;;;;;;14.47;13.90;;;13.60;99.90;;;;;;5082342;28;20462;-81
2023/04/07 09:36:29;;;;;;;13.20;12.80;;;13.70;99.90;;;;;;5086149;28;20555;-81
2023/04/07 09:39:08;;;;;;;14.20;13.50;;;13.80;99.90;;;;;;5084267;28;20539;-81
2023/04/07 09:41:36;;;;;;;13.27;12.70;;;14.00;99.90;;;;;;5084706;28;20519;-83
2023/04/07 09:44:05;;;;;;;12.80;12.37;;;14.00;99.90;;;;;;5083839;28;20474;-84
2023/04/07 09:46:33;;;;;;;12.90;12.40;;;14.20;99.90;;;;;;5086711;28;20462;-82
2023/04/07 09:49:04;;;;;;;12.30;11.90;;;14.20;99.90;;;;;;5084713;28;20443;-82
2023/04/07 09:51:33;;;;;;;12.73;12.33;;;14.20;99.90;;;;;;5084148;28;21036;-82
2023/04/07 09:54:02;;;;;;;13.30;12.63;;;14.10;99.90;;;;;;5080894;28;20469;-82
2023/04/07 09:56:31;;;;;;;13.70;13.00;;;14.00;99.90;;;;;;5085598;28;20513;-82
2023/04/07 09:58:59;;;;;;;12.97;12.47;;;13.90;99.90;;;;;;5082597;28;20475;-82
2023/04/07 10:01:28;;;;;;;12.07;11.67;;;13.80;99.90;;;;;;5082370;28;20471;-82
2023/04/07 10:03:56;;;;;;;12.37;11.70;;;13.90;99.90;;;;;;5085443;28;21150;-82
2023/04/07 10:06:26;;;;;;;12.00;11.47;;;13.80;99.90;;;;;;5085693;28;20473;-81
2023/04/07 10:08:54;;;;;;;11.70;11.40;;;13.90;99.90;;;;;;5084969;28;20482;-81
2023/04/07 10:11:24;;;;;;;11.50;11.10;;;13.90;99.90;;;;;;5080759;28;20527;-83
2023/04/07 10:13:52;;;;;;;11.30;10.90;;;13.90;99.90;;;;;;5081382;28;20479;-82
2023/04/07 10:16:22;;;;;;;13.60;13.00;;;13.90;99.90;;;;;;5085012;28;20478;-81
2023/04/07 10:18:51;;;;;;;13.40;12.83;;;13.80;99.90;;;;;;5083253;28;20532;-82
2023/04/07 10:21:19;;;;;;;12.87;12.37;;;13.80;99.90;;;;;;5086765;28;20485;-81
2023/04/07 10:23:57;;;;;;;12.67;12.17;;;13.70;99.90;;;;;;5079167;28;20502;-81
2023/04/07 10:26:30;;;;;;;14.63;13.70;;;13.60;99.90;;;;;;5086627;28;20454;-81
2023/04/07 10:29:04;;;;;;;14.50;13.80;;;13.50;99.90;;;;;;5078636;28;20860;-81
2023/04/07 10:31:32;;;;;;;15.00;13.93;;;13.30;99.90;;;;;;5082017;28;21301;-81
2023/04/07 10:34:01;;;;;;;15.10;14.30;;;13.10;99.90;;;;;;5085094;28;21022;-82
2023/04/07 10:36:30;;;;;;;16.23;15.23;;;13.00;99.90;;;;;;5085179;28;20450;-81
2023/04/07 10:39:19;;;;;;;15.53;14.73;;;12.80;99.90;;;;;;5087017;28;20442;-80
2023/04/07 10:41:50;;;;;;;16.07;15.20;;;12.70;99.90;;;;;;5081368;28;20456;-81
2023/04/07 10:44:51;;;;;;;15.57;14.80;;;12.60;99.90;;;;;;5083728;28;20542;-82
2023/04/07 10:47:20;;;;;;;13.50;13.00;;;12.40;99.90;;;;;;5082232;28;20551;-82
2023/04/07 10:50:24;;;;;;;15.07;14.40;;;12.40;99.90;;;;;;5081156;28;20453;-82
2023/04/07 10:53:07;;;;;;;16.60;15.80;;;12.30;99.90;;;;;;5070311;28;20478;-79
2023/04/07 10:55:37;;;;;;;15.53;14.73;;;12.20;99.90;;;;;;5084757;28;20462;-82
2023/04/07 10:58:31;;;;;;;15.37;14.43;;;12.20;1.00;;;;;;5082370;28;20481;-84
2023/04/07 11:01:19;;;;;;;14.63;14.03;;;12.00;1.00;;;;;;5066716;28;20505;-83
2023/04/07 11:03:59;;;;;;;13.97;13.07;;;11.90;1.00;;;;;;5080716;28;20493;-82
2023/04/07 11:06:27;;;;;;;14.30;13.50;;;11.80;1.00;;;;;;5080723;28;20454;-83
2023/04/07 11:08:56;;;;;;;13.87;12.90;;;11.70;1.00;;;;;;5083305;28;20844;-84
2023/04/07 11:11:38;;;;;;;13.33;12.83;;;11.60;1.00;;;;;;5086290;28;20444;-83
2023/04/07 11:14:08;;;;;;;14.23;13.47;;;11.70;1.00;;;;;;5085439;28;20471;-83
2023/04/07 11:16:38;;;;;;;14.17;13.47;;;11.80;99.90;;;;;;5079651;28;20438;-84
2023/04/07 11:19:06;;;;;;;14.30;13.70;;;11.60;99.90;;;;;;5083565;28;20492;-83
2023/04/07 11:21:35;;;;;;;14.30;13.50;;;11.60;1.00;;;;;;5083972;28;20475;-83
2023/04/07 11:24:04;;;;;;;13.73;13.00;;;11.60;99.90;;;;;;5079495;28;20472;-81
2023/04/07 11:26:39;;;;;;;14.40;13.70;;;11.50;99.90;;;;;;5085018;28;20456;-83
2023/04/07 11:29:09;;;;;;;13.90;13.30;;;11.40;99.90;;;;;;5087502;28;20458;-83
2023/04/07 11:31:38;;;;;;;13.67;13.00;;;11.40;99.90;;;;;;5085882;28;20443;-83
2023/04/07 11:34:07;;;;;;;14.23;13.43;;;11.30;99.90;;;;;;5075832;28;20524;-83
2023/04/07 11:36:39;;;;;;;14.37;13.77;;;11.20;1.00;;;;;;5076329;28;20539;-82
2023/04/07 11:39:18;;;;;;;14.70;13.90;;;11.20;35.60;;;;;;5068188;28;21171;-80
2023/04/07 11:41:48;;;;;;;14.60;14.00;;;11.10;99.90;;;;;;5079936;28;20223;-81
2023/04/07 11:44:17;;;;;;;15.23;14.20;;;11.00;99.90;;;;;;5081933;28;20459;-80
2023/04/07 11:47:04;;;;;;;14.87;14.17;;;11.00;99.90;;;;;;5082503;28;20458;-80
2023/04/07 11:49:32;;;;;;;15.67;14.97;;;11.00;99.90;;;;;;5081922;28;21892;-81
2023/04/07 11:52:02;;;;;;;15.20;14.57;;;10.90;1.00;;;;;;5077882;28;21000;-81
2023/04/07 11:54:41;;;;;;;15.37;14.53;;;10.90;99.90;;;;;;5084604;28;20454;-80
2023/04/07 11:57:11;;;;;;;14.63;14.03;;;10.90;99.90;;;;;;5088015;28;20461;-82
2023/04/07 11:59:41;;;;;;;14.83;14.33;;;10.90;99.90;;;;;;5085102;28;20524;-82
2023/04/07 12:02:09;;;;;;;15.10;14.40;;;10.80;1.00;;;;;;5084014;28;20952;-80
2023/04/07 12:04:39;;;;;;;14.23;13.83;;;10.90;94.20;;;;;;5084206;28;20461;-81
2023/04/07 12:07:09;;;;;;;14.50;13.70;;;10.90;71.40;;;;;;5089263;28;20449;-83
2023/04/07 12:09:38;;;;;;;14.10;13.40;;;10.80;52.30;;;;;;5086773;28;20456;-80
2023/04/07 12:12:09;;;;;;;14.20;13.70;;;10.80;99.90;;;;;;5084815;28;20497;-81
2023/04/07 12:14:37;;;;;;;14.33;13.53;;;10.80;1.00;;;;;;5080848;28;20453;-82
2023/04/07 12:17:08;;;;;;;14.60;14.00;;;10.90;99.90;;;;;;5078585;28;20458;-80
2023/04/07 12:19:38;;;;;;;14.50;13.77;;;10.60;99.90;;;;;;5085445;28;20452;-82
2023/04/07 12:22:06;;;;;;;14.40;13.70;;;10.70;99.90;;;;;;5087410;28;20592;-81
2023/04/07 12:24:34;;;;;;;14.90;14.30;;;10.70;1.00;;;;;;5085386;28;20462;-83
2023/04/07 12:27:03;;;;;;;14.10;13.60;;;10.80;99.90;;;;;;5086148;28;20457;-83
2023/04/07 12:29:31;;;;;;;14.03;13.53;;;10.90;99.90;;;;;;5085441;28;20466;-82
2023/04/07 12:31:59;;;;;;;14.23;13.63;;;11.00;99.90;;;;;;5087661;28;21239;-83
2023/04/07 12:34:29;;;;;;;14.63;14.03;;;11.20;1.00;;;;;;5090190;28;20543;-80
2023/04/07 12:36:57;;;;;;;14.77;14.17;;;11.30;99.90;;;;;;5089206;28;20484;-84
2023/04/07 12:39:26;;;;;;;14.10;13.50;;;11.30;99.90;;;;;;5090676;28;20451;-82
2023/04/07 12:41:54;;;;;;;15.67;14.80;;;11.40;99.90;;;;;;5086321;28;20466;-80
2023/04/07 12:44:25;;;;;;;15.67;14.97;;;11.40;99.90;;;;;;5089378;28;20537;-83
2023/04/07 12:46:53;;;;;;;16.93;16.03;;;11.40;1.00;;;;;;5087959;28;21008;-82
2023/04/07 12:49:21;;;;;;;15.60;15.00;;;11.40;99.90;;;;;;5086813;28;20450;-82